Time;durP1;ratioP1;P1;durP2;ratioP2;P2;SDS_P1;SDS_P2;PMS_P1;PMS_P2;Temp;Humidity;BMP_temperature;BMP_pressure;BME280_temperature;BME280_humidity;BME280_pressure;Samples;Min_cycle;Max_cycle;Signal;HPM_P1;HPM_P2
2023/07/04 00:01:37;;;;;;;15.38;2.35;;;15.70;82.90;;;;;;5030930;28;20552;-69
2023/07/04 00:04:07;;;;;;;12.27;2.35;;;;;;;;;;5019867;28;20204;-70
2023/07/04 00:06:36;;;;;;;17.98;2.58;;;;;;;;;;5011128;28;20698;-69
2023/07/04 00:09:04;;;;;;;24.15;3.47;;;15.70;99.90;;;;;;5011238;28;20187;-69
2023/07/04 00:11:31;;;;;;;18.73;2.33;;;;;;;;;;5010957;28;20377;-68
2023/07/04 00:13:56;;;;;;;10.00;2.33;;;15.50;99.90;;;;;;5010732;28;20181;-67
2023/07/04 00:16:23;;;;;;;14.90;2.90;;;;;;;;;;5010954;28;20541;-67
2023/07/04 00:18:49;;;;;;;14.00;2.35;;;15.40;99.90;;;;;;5010708;28;20175;-68
2023/07/04 00:21:15;;;;;;;13.88;2.58;;;;;;;;;;5014466;28;20224;-74
2023/07/04 00:23:45;;;;;;;18.08;2.78;;;15.40;99.90;;;;;;5030938;28;20169;-78
2023/07/04 00:26:13;;;;;;;18.30;2.67;;;15.60;99.90;;;;;;5033148;28;20170;-73
2023/07/04 00:28:38;;;;;;;13.38;2.42;;;15.30;99.90;;;;;;5033292;28;20708;-73
2023/07/04 00:31:05;;;;;;;18.75;2.85;;;;;;;;;;5034814;28;20293;-74
2023/07/04 00:33:30;;;;;;;14.93;2.08;;;15.70;99.90;;;;;;5034602;28;20177;-73
2023/07/04 00:36:03;;;;;;;15.98;2.80;;;15.50;99.90;;;;;;5033109;28;20177;-70
2023/07/04 00:38:32;;;;;;;12.55;2.17;;;15.50;99.90;;;;;;5034344;28;20211;-70
2023/07/04 00:41:01;;;;;;;21.90;3.25;;;15.30;99.90;;;;;;5034290;28;20182;-72
2023/07/04 00:43:56;;;;;;;16.92;3.30;;;15.50;99.90;;;;;;5034009;28;20200;-72
2023/07/04 00:46:28;;;;;;;16.13;2.08;;;14.90;99.90;;;;;;5034318;28;20260;-72
2023/07/04 00:48:55;;;;;;;18.73;2.78;;;;;;;;;;5034121;28;20253;-72
2023/07/04 00:51:22;;;;;;;14.07;2.90;;;;;;;;;;5034076;28;20216;-73
2023/07/04 00:53:57;;;;;;;13.57;2.28;;;15.50;99.90;;;;;;5033932;28;20259;-73
2023/07/04 00:56:25;;;;;;;18.70;2.60;;;15.60;99.90;;;;;;5034345;28;20170;-69
2023/07/04 00:58:54;;;;;;;11.32;2.10;;;15.60;99.90;;;;;;5031831;28;20652;-69
2023/07/04 01:01:20;;;;;;;14.93;2.55;;;15.30;99.90;;;;;;5026050;28;20178;-72
2023/07/04 01:03:47;;;;;;;18.80;2.80;;;15.50;99.90;;;;;;5033769;28;20190;-71
2023/07/04 01:06:38;;;;;;;10.35;1.63;;;15.90;99.90;;;;;;5017989;28;20278;-72
2023/07/04 01:09:08;;;;;;;10.73;1.90;;;;;;;;;;5013824;28;20194;-72
2023/07/04 01:11:42;;;;;;;11.18;1.92;;;15.50;1.00;;;;;;5036907;28;20459;-72
2023/07/04 01:14:20;;;;;;;10.23;1.90;;;15.50;1.00;;;;;;5033421;28;20185;-72
2023/07/04 01:16:46;;;;;;;15.82;2.40;;;;;;;;;;5033502;28;20169;-71
2023/07/04 01:19:18;;;;;;;12.20;2.22;;;15.30;99.90;;;;;;5033536;28;20209;-71
2023/07/04 01:21:47;;;;;;;8.00;1.77;;;15.40;99.90;;;;;;5033626;28;20189;-71
2023/07/04 01:24:56;;;;;;;9.85;1.92;;;15.40;1.00;;;;;;5033450;28;20201;-71
2023/07/04 01:27:23;;;;;;;15.95;2.15;;;;;;;;;;4996066;28;20295;-73
2023/07/04 01:29:49;;;;;;;24.40;2.80;;;;;;;;;;5033354;28;20170;-74
2023/07/04 01:32:15;;;;;;;15.73;2.15;;;15.40;99.90;;;;;;5033157;28;20633;-74
2023/07/04 01:34:41;;;;;;;18.88;2.50;;;;;;;;;;5033418;28;20174;-72
2023/07/04 01:37:06;;;;;;;13.25;1.95;;;15.40;99.90;;;;;;5032308;28;20166;-72
2023/07/04 01:39:32;;;;;;;16.05;2.90;;;15.30;99.90;;;;;;5033390;28;20568;-74
2023/07/04 01:42:04;;;;;;;14.77;2.58;;;14.60;99.90;;;;;;5033273;28;20206;-71
2023/07/04 01:44:30;;;;;;;11.98;2.53;;;15.20;99.90;;;;;;5033077;28;20184;-71
2023/07/04 01:46:55;;;;;;;13.32;2.22;;;15.10;99.90;;;;;;5032637;28;20233;-72
2023/07/04 01:49:21;;;;;;;11.52;2.03;;;;;;;;;;5032431;28;20224;-69
2023/07/04 01:51:47;;;;;;;9.73;1.88;;;;;;;;;;5032810;28;20530;-71
2023/07/04 01:54:17;;;;;;;13.60;2.13;;;15.20;99.90;;;;;;5032541;28;20170;-71
2023/07/04 01:56:48;;;;;;;16.88;2.60;;;15.20;99.90;;;;;;5031349;28;20181;-70
2023/07/04 01:59:14;;;;;;;20.48;3.17;;;15.00;99.90;;;;;;5032921;28;20178;-69
2023/07/04 02:01:40;;;;;;;15.73;2.47;;;15.10;99.90;;;;;;5032885;28;20576;-72
2023/07/04 02:04:05;;;;;;;18.13;2.28;;;15.00;99.90;;;;;;5032728;28;20596;-72
2023/07/04 02:06:31;;;;;;;14.40;2.72;;;15.10;99.90;;;;;;5032461;28;20178;-73
2023/07/04 02:08:56;;;;;;;13.18;2.10;;;15.10;99.90;;;;;;5032518;28;20216;-73
2023/07/04 02:11:22;;;;;;;11.07;2.10;;;15.10;99.90;;;;;;5032447;28;20229;-72
2023/07/04 02:13:48;;;;;;;13.98;2.55;;;;;;;;;;5032104;28;20256;-72
2023/07/04 02:16:14;;;;;;;11.07;2.30;;;;;;;;;;5031923;28;20170;-73
2023/07/04 02:18:40;;;;;;;18.83;2.65;;;;;;;;;;5032189;28;20177;-74
2023/07/04 02:21:06;;;;;;;10.25;2.33;;;15.30;99.90;;;;;;5032259;28;20185;-73
2023/07/04 02:23:32;;;;;;;21.85;2.47;;;;;;;;;;5032298;28;20209;-74
2023/07/04 02:25:58;;;;;;;13.70;2.80;;;15.20;99.90;;;;;;5032342;28;20185;-73
2023/07/04 02:28:23;;;;;;;13.52;3.00;;;15.10;99.90;;;;;;5032210;28;20214;-74
2023/07/04 02:30:59;;;;;;;17.08;2.78;;;15.10;99.90;;;;;;5032316;28;20169;-75
2023/07/04 02:33:26;;;;;;;11.57;2.33;;;15.10;99.90;;;;;;5032396;28;20635;-73
2023/07/04 02:35:52;;;;;;;17.25;2.72;;;15.10;99.90;;;;;;5032242;28;20166;-71
2023/07/04 02:38:18;;;;;;;17.20;2.78;;;15.00;99.90;;;;;;5031994;28;20165;-70
2023/07/04 02:40:45;;;;;;;15.07;2.30;;;15.00;99.90;;;;;;5032264;28;20166;-70
2023/07/04 02:43:11;;;;;;;20.67;2.47;;;15.00;99.90;;;;;;5032006;28;20239;-71
2023/07/04 02:45:36;;;;;;;11.40;2.28;;;15.10;99.90;;;;;;5031963;28;20194;-71
2023/07/04 02:48:02;;;;;;;12.32;2.30;;;15.20;99.90;;;;;;5031797;28;20245;-70
2023/07/04 02:50:28;;;;;;;15.88;2.80;;;15.10;99.90;;;;;;5031901;28;20233;-71
2023/07/04 02:52:54;;;;;;;12.20;2.20;;;;;;;;;;5032021;28;20178;-72
2023/07/04 02:55:20;;;;;;;15.18;2.22;;;15.10;99.90;;;;;;5031924;28;20633;-71
2023/07/04 02:57:46;;;;;;;12.73;2.40;;;15.00;99.90;;;;;;5031985;28;20178;-70
2023/07/04 03:00:11;;;;;;;11.50;2.28;;;14.90;99.90;;;;;;5031741;28;20616;-70
2023/07/04 03:02:37;;;;;;;10.40;2.65;;;14.90;99.90;;;;;;5031783;28;20471;-72
2023/07/04 03:05:04;;;;;;;12.27;2.42;;;14.90;99.90;;;;;;5030330;28;20170;-71
2023/07/04 03:07:30;;;;;;;12.50;2.63;;;15.00;99.90;;;;;;5031073;28;20233;-70
2023/07/04 03:09:55;;;;;;;12.02;2.08;;;14.80;99.90;;;;;;5029665;28;20226;-72
2023/07/04 03:12:21;;;;;;;12.52;2.03;;;;;;;;;;5031252;28;20260;-71
2023/07/04 03:14:47;;;;;;;10.45;2.30;;;14.80;99.90;;;;;;5031074;28;20165;-70
2023/07/04 03:17:12;;;;;;;10.48;2.67;;;15.10;99.90;;;;;;5031398;28;20190;-72
2023/07/04 03:19:38;;;;;;;14.98;2.33;;;15.00;99.90;;;;;;5019315;28;20806;-72
2023/07/04 03:22:04;;;;;;;11.05;2.17;;;14.80;99.90;;;;;;5045913;28;20188;-72
2023/07/04 03:24:30;;;;;;;16.15;2.13;;;14.70;99.90;;;;;;5030023;28;20166;-72
2023/07/04 03:26:56;;;;;;;14.48;2.28;;;14.80;99.90;;;;;;5026590;28;20201;-70
2023/07/04 03:29:22;;;;;;;12.00;1.90;;;14.60;99.90;;;;;;5020607;28;20808;-69
2023/07/04 03:31:47;;;;;;;13.02;2.25;;;14.50;99.90;;;;;;5030861;28;20203;-70
2023/07/04 03:34:13;;;;;;;8.65;1.85;;;14.50;99.90;;;;;;5030359;28;20174;-70
2023/07/04 03:36:39;;;;;;;13.52;2.47;;;14.50;99.90;;;;;;5030591;28;20656;-70
2023/07/04 03:39:05;;;;;;;8.98;2.03;;;14.50;99.90;;;;;;5031054;28;20664;-70
2023/07/04 03:41:31;;;;;;;10.43;1.77;;;14.40;99.90;;;;;;5029855;28;20708;-70
2023/07/04 03:43:57;;;;;;;14.60;2.28;;;14.30;99.90;;;;;;5030846;28;20260;-68
2023/07/04 03:46:22;;;;;;;10.65;2.00;;;14.20;99.90;;;;;;5030362;28;20177;-69
2023/07/04 03:48:49;;;;;;;9.35;2.00;;;14.20;99.90;;;;;;5030734;28;20178;-73
2023/07/04 03:51:15;;;;;;;9.25;1.80;;;14.10;99.90;;;;;;5030678;28;20178;-67
2023/07/04 03:53:41;;;;;;;7.03;2.00;;;;;;;;;;5030918;28;20211;-71
2023/07/04 03:56:06;;;;;;;9.07;1.88;;;14.10;99.90;;;;;;5030163;28;20185;-71
2023/07/04 03:58:32;;;;;;;9.73;2.42;;;13.80;99.90;;;;;;5030679;28;20209;-71
2023/07/04 04:00:58;;;;;;;8.43;1.90;;;13.80;99.90;;;;;;5030283;28;20177;-78
2023/07/04 04:03:24;;;;;;;8.27;2.00;;;13.80;99.90;;;;;;5030694;28;20203;-79
2023/07/04 04:05:50;;;;;;;8.70;2.08;;;13.80;99.90;;;;;;5030854;28;20545;-79
2023/07/04 04:08:16;;;;;;;10.80;1.67;;;13.80;99.90;;;;;;5030455;28;20213;-79
2023/07/04 04:10:42;;;;;;;7.55;1.83;;;13.80;99.90;;;;;;5030338;28;20222;-79
2023/07/04 04:13:09;;;;;;;10.52;2.30;;;13.80;99.90;;;;;;5030851;28;20261;-79
2023/07/04 04:15:35;;;;;;;9.40;2.03;;;13.90;99.90;;;;;;5030326;28;20178;-81
2023/07/04 04:18:00;;;;;;;11.88;2.03;;;13.90;99.90;;;;;;5030571;28;20182;-80
2023/07/04 04:20:26;;;;;;;12.20;1.95;;;13.90;99.90;;;;;;5029939;28;20640;-81
2023/07/04 04:22:51;;;;;;;9.52;2.00;;;13.90;99.90;;;;;;5030849;28;20185;-75
2023/07/04 04:25:18;;;;;;;5.13;1.92;;;13.90;99.90;;;;;;5030890;28;20205;-75
2023/07/04 04:27:46;;;;;;;8.75;2.08;;;13.90;99.90;;;;;;5030767;28;20310;-75
2023/07/04 04:30:12;;;;;;;9.52;2.15;;;14.00;99.90;;;;;;5030583;28;20177;-74
2023/07/04 04:32:38;;;;;;;9.02;1.73;;;14.00;99.90;;;;;;5030532;28;20178;-75
2023/07/04 04:35:05;;;;;;;10.55;1.90;;;14.00;99.90;;;;;;5030499;28;20201;-74
2023/07/04 04:37:31;;;;;;;9.70;2.00;;;13.90;99.90;;;;;;5030547;28;20170;-75
2023/07/04 04:39:59;;;;;;;10.05;2.13;;;13.90;99.90;;;;;;5030872;28;20170;-75
2023/07/04 04:42:26;;;;;;;10.85;1.83;;;14.00;99.90;;;;;;5030246;28;20186;-74
2023/07/04 04:44:53;;;;;;;4.88;1.70;;;14.00;99.90;;;;;;5030310;28;20170;-73
2023/07/04 04:47:23;;;;;;;9.32;2.05;;;14.00;99.90;;;;;;5030170;28;20247;-74
2023/07/04 04:49:50;;;;;;;8.48;2.05;;;14.00;99.90;;;;;;5028954;28;20597;-74
2023/07/04 04:52:19;;;;;;;7.45;1.52;;;14.00;99.90;;;;;;5029669;28;20200;-73
2023/07/04 04:54:44;;;;;;;8.80;1.98;;;14.10;99.90;;;;;;5030334;28;20548;-73
2023/07/04 04:57:12;;;;;;;10.30;1.80;;;14.10;99.90;;;;;;5030283;28;20656;-73
2023/07/04 04:59:37;;;;;;;9.93;2.58;;;14.10;99.90;;;;;;5029977;28;20174;-75
2023/07/04 05:02:03;;;;;;;8.43;2.28;;;12.10;99.90;;;;;;5030283;28;20182;-71
2023/07/04 05:04:29;;;;;;;7.78;2.08;;;14.10;99.90;;;;;;5030347;28;20707;-71
2023/07/04 05:06:54;;;;;;;10.80;1.95;;;14.20;99.90;;;;;;5029991;28;20260;-71
2023/07/04 05:09:20;;;;;;;11.88;2.28;;;14.30;99.90;;;;;;5029696;28;20708;-71
2023/07/04 05:11:47;;;;;;;9.00;2.17;;;14.20;99.90;;;;;;5029939;28;20255;-71
2023/07/04 05:14:13;;;;;;;12.45;2.10;;;14.20;99.90;;;;;;5033609;28;20204;-71
2023/07/04 05:16:39;;;;;;;9.57;2.15;;;14.20;99.90;;;;;;5033544;28;20675;-71
2023/07/04 05:19:05;;;;;;;13.43;2.22;;;14.20;99.90;;;;;;5033662;28;20208;-71
2023/07/04 05:21:31;;;;;;;10.82;2.53;;;14.10;99.90;;;;;;5033445;28;20173;-72
2023/07/04 05:23:57;;;;;;;12.55;2.47;;;14.20;99.90;;;;;;5032995;28;20170;-71
2023/07/04 05:26:25;;;;;;;8.25;1.90;;;14.50;99.90;;;;;;5033143;28;20193;-71
2023/07/04 05:28:53;;;;;;;15.80;3.05;;;14.30;99.90;;;;;;5033029;28;20273;-73
2023/07/04 05:31:21;;;;;;;7.85;1.95;;;14.30;99.90;;;;;;5033287;28;20170;-72
2023/07/04 05:33:47;;;;;;;12.18;2.67;;;14.30;99.90;;;;;;5032978;28;20200;-71
2023/07/04 05:36:18;;;;;;;15.57;2.00;;;14.40;99.90;;;;;;5032865;28;20680;-73
2023/07/04 05:38:46;;;;;;;11.93;2.13;;;14.40;99.90;;;;;;5033337;28;20185;-70
2023/07/04 05:41:14;;;;;;;12.82;1.95;;;14.30;99.90;;;;;;5032998;28;20196;-70
2023/07/04 05:43:40;;;;;;;7.35;2.03;;;14.40;99.90;;;;;;5033176;28;20159;-70
2023/07/04 05:46:08;;;;;;;11.85;1.90;;;14.30;99.90;;;;;;5033169;28;20193;-70
2023/07/04 05:48:34;;;;;;;8.95;2.17;;;14.30;99.90;;;;;;5033051;28;20210;-71
2023/07/04 05:51:02;;;;;;;9.65;2.00;;;14.30;99.90;;;;;;5033007;28;20169;-70
2023/07/04 05:53:31;;;;;;;8.10;2.10;;;14.30;99.90;;;;;;5032743;28;20172;-70
2023/07/04 05:56:17;;;;;;;10.55;1.70;;;14.40;99.90;;;;;;5033010;28;20637;-70
2023/07/04 05:58:45;;;;;;;9.23;2.13;;;14.50;99.90;;;;;;5033050;28;20173;-69
2023/07/04 06:01:15;;;;;;;7.70;2.22;;;14.50;99.90;;;;;;5033005;28;20184;-70
2023/07/04 06:03:41;;;;;;;10.52;2.15;;;14.60;99.90;;;;;;5032597;28;20193;-70
2023/07/04 06:06:18;;;;;;;10.02;2.35;;;14.60;99.90;;;;;;5032814;28;20174;-71
2023/07/04 06:08:43;;;;;;;8.77;2.30;;;14.50;99.90;;;;;;5032749;28;20217;-71
2023/07/04 06:11:09;;;;;;;7.68;2.40;;;14.50;99.90;;;;;;5032473;28;20712;-71
2023/07/04 06:13:35;;;;;;;10.95;2.15;;;;;;;;;;5064705;28;20722;-72
2023/07/04 06:16:03;;;;;;;12.57;2.63;;;14.50;99.90;;;;;;5032243;28;20177;-70
2023/07/04 06:18:29;;;;;;;8.48;2.45;;;14.50;99.90;;;;;;5031857;28;20231;-70
2023/07/04 06:21:11;;;;;;;13.57;2.33;;;14.60;99.90;;;;;;5031635;28;20586;-70
2023/07/04 06:23:38;;;;;;;8.63;2.15;;;14.60;99.90;;;;;;5031322;28;20166;-71
2023/07/04 06:26:05;;;;;;;8.35;2.30;;;14.40;99.90;;;;;;5031950;28;20243;-68
2023/07/04 06:28:31;;;;;;;9.00;2.42;;;14.50;99.90;;;;;;5032376;28;20213;-69
2023/07/04 06:30:57;;;;;;;9.98;2.03;;;14.30;99.90;;;;;;5032081;28;20174;-68
2023/07/04 06:33:23;;;;;;;10.02;2.40;;;14.50;99.90;;;;;;5030607;28;20580;-68
2023/07/04 06:35:49;;;;;;;9.85;2.25;;;14.50;99.90;;;;;;5032079;28;20645;-67
2023/07/04 06:38:14;;;;;;;10.05;2.17;;;14.10;99.90;;;;;;5031626;28;20540;-68
2023/07/04 06:40:41;;;;;;;7.28;2.03;;;14.20;99.90;;;;;;5031553;28;20723;-68
2023/07/04 06:43:07;;;;;;;8.18;1.98;;;14.10;99.90;;;;;;5031865;28;20181;-68
2023/07/04 06:45:36;;;;;;;8.73;2.17;;;14.00;99.90;;;;;;5031951;28;20628;-68
2023/07/04 06:48:05;;;;;;;12.75;2.10;;;14.00;99.90;;;;;;5031830;28;20561;-68
2023/07/04 06:50:30;;;;;;;6.57;1.88;;;14.00;99.90;;;;;;5027644;28;20194;-68
2023/07/04 06:52:56;;;;;;;6.53;1.85;;;14.20;99.90;;;;;;5031597;28;20174;-68
2023/07/04 06:55:22;;;;;;;4.22;2.03;;;14.00;99.90;;;;;;5031979;28;20174;-67
2023/07/04 06:57:47;;;;;;;7.32;2.08;;;14.10;99.90;;;;;;5031720;28;20637;-67
2023/07/04 07:00:13;;;;;;;7.00;1.63;;;14.10;99.90;;;;;;5031085;28;20264;-67
2023/07/04 07:02:39;;;;;;;6.88;1.77;;;14.10;99.90;;;;;;5036759;28;20267;-67
2023/07/04 07:05:06;;;;;;;6.95;1.50;;;14.10;99.90;;;;;;5037116;28;20706;-68
2023/07/04 07:07:32;;;;;;;4.68;1.63;;;14.00;99.90;;;;;;5031900;28;20321;-79
2023/07/04 07:09:57;;;;;;;8.80;1.90;;;13.90;99.90;;;;;;5030843;28;20220;-82
2023/07/04 07:12:23;;;;;;;5.53;1.60;;;14.00;99.90;;;;;;5029095;28;20181;-72
2023/07/04 07:14:48;;;;;;;5.68;1.70;;;13.90;99.90;;;;;;5030732;28;20182;-73
2023/07/04 07:17:14;;;;;;;5.38;1.40;;;14.00;99.90;;;;;;5029141;28;20235;-74
2023/07/04 07:19:40;;;;;;;6.65;1.98;;;14.10;99.90;;;;;;5029689;28;20198;-75
2023/07/04 07:22:06;;;;;;;7.70;2.00;;;14.10;99.90;;;;;;5032430;28;20231;-70
2023/07/04 07:24:33;;;;;;;7.32;2.08;;;14.00;99.90;;;;;;5031355;28;20178;-73
2023/07/04 07:26:58;;;;;;;6.55;1.73;;;14.00;99.90;;;;;;5030442;28;20692;-72
2023/07/04 07:29:25;;;;;;;6.03;1.67;;;14.10;99.90;;;;;;5031221;28;20220;-79
2023/07/04 07:31:50;;;;;;;9.43;1.70;;;14.00;99.90;;;;;;5031109;28;20170;-76
2023/07/04 07:34:17;;;;;;;7.47;1.88;;;14.00;99.90;;;;;;5030912;28;20185;-75
2023/07/04 07:36:45;;;;;;;5.05;1.70;;;14.00;99.90;;;;;;5031070;28;20170;-74
2023/07/04 07:39:13;;;;;;;11.77;2.10;;;13.90;99.90;;;;;;5030350;28;20174;-72
2023/07/04 07:41:41;;;;;;;8.43;2.20;;;14.00;99.90;;;;;;5030941;28;20174;-70
2023/07/04 07:44:08;;;;;;;7.20;1.92;;;13.90;99.90;;;;;;5039539;28;20181;-70
2023/07/04 07:46:34;;;;;;;6.30;1.70;;;14.00;99.90;;;;;;5036366;28;20667;-73
2023/07/04 07:49:00;;;;;;;4.70;2.20;;;13.90;99.90;;;;;;5030991;28;20178;-73
2023/07/04 07:51:26;;;;;;;9.30;2.13;;;13.80;99.90;;;;;;5033969;28;20592;-72
2023/07/04 07:53:54;;;;;;;7.75;1.85;;;14.10;99.90;;;;;;5025264;28;20201;-73
2023/07/04 07:56:22;;;;;;;9.25;2.13;;;14.00;99.90;;;;;;5023987;28;20182;-72
2023/07/04 07:58:48;;;;;;;7.80;2.05;;;14.10;99.90;;;;;;5030582;28;20312;-73
2023/07/04 08:01:19;;;;;;;8.20;2.22;;;14.00;99.90;;;;;;5023530;28;20193;-72
2023/07/04 08:03:46;;;;;;;11.27;2.30;;;14.00;99.90;;;;;;5029666;28;20624;-72
2023/07/04 08:06:25;;;;;;;10.43;2.53;;;14.10;99.90;;;;;;5027893;28;20652;-71
2023/07/04 08:08:52;;;;;;;9.82;2.13;;;14.10;99.90;;;;;;5028712;28;20216;-72
2023/07/04 08:11:18;;;;;;;7.40;2.20;;;14.10;99.90;;;;;;5029925;28;20312;-71
2023/07/04 08:13:44;;;;;;;6.90;2.55;;;14.20;99.90;;;;;;5010916;28;20197;-71
2023/07/04 08:16:11;;;;;;;9.70;2.40;;;14.30;99.90;;;;;;5017761;28;20170;-71
2023/07/04 08:18:37;;;;;;;9.35;2.00;;;14.20;99.90;;;;;;5030574;28;20251;-71
2023/07/04 08:21:04;;;;;;;12.35;2.58;;;14.20;99.90;;;;;;5030842;28;20162;-71
2023/07/04 08:23:30;;;;;;;9.90;2.30;;;14.20;99.90;;;;;;5030716;28;20249;-71
2023/07/04 08:25:56;;;;;;;9.27;2.42;;;;;;;;;;5029410;28;20297;-70
2023/07/04 08:28:23;;;;;;;8.98;2.47;;;14.30;99.90;;;;;;5030610;28;20233;-71
2023/07/04 08:30:49;;;;;;;7.20;1.95;;;14.30;99.90;;;;;;5030539;28;20177;-76
2023/07/04 08:33:17;;;;;;;8.60;2.75;;;14.20;99.90;;;;;;5029075;28;20180;-75
2023/07/04 08:36:03;;;;;;;10.35;2.17;;;14.20;99.90;;;;;;5025864;28;20205;-74
2023/07/04 08:38:29;;;;;;;5.57;2.60;;;14.40;99.90;;;;;;5022225;28;20228;-76
2023/07/04 08:40:56;;;;;;;8.20;2.08;;;14.40;99.90;;;;;;5030197;28;20502;-74
2023/07/04 08:43:52;;;;;;;9.40;2.13;;;14.50;99.90;;;;;;5030139;28;20194;-73
2023/07/04 08:46:20;;;;;;;6.30;2.20;;;14.30;99.90;;;;;;5015266;28;20201;-75
2023/07/04 08:48:47;;;;;;;11.65;3.08;;;14.30;99.90;;;;;;5033928;28;20665;-77
2023/07/04 08:51:22;;;;;;;6.78;2.42;;;14.30;99.90;;;;;;5033875;28;20174;-78
2023/07/04 08:53:53;;;;;;;10.45;2.22;;;14.30;99.90;;;;;;5032761;28;20193;-78
2023/07/04 08:56:31;;;;;;;9.13;2.67;;;12.60;99.90;;;;;;5034028;28;20672;-77
2023/07/04 08:59:15;;;;;;;8.38;2.15;;;14.40;99.90;;;;;;5033443;28;20196;-74
2023/07/04 09:01:56;;;;;;;7.90;1.80;;;14.40;99.90;;;;;;5034032;28;20178;-79
2023/07/04 09:04:40;;;;;;;9.45;2.22;;;14.60;99.90;;;;;;5033023;28;20165;-68
2023/07/04 09:07:12;;;;;;;7.90;2.08;;;14.60;99.90;;;;;;5033608;28;20194;-68
2023/07/04 09:10:01;;;;;;;9.45;2.05;;;14.40;99.90;;;;;;5032129;28;20182;-68
2023/07/04 09:12:34;;;;;;;5.25;2.17;;;14.30;99.90;;;;;;5033778;28;20186;-68
2023/07/04 09:15:18;;;;;;;7.32;2.00;;;14.20;99.90;;;;;;5033786;28;20196;-68
2023/07/04 09:17:50;;;;;;;6.70;2.08;;;14.10;99.90;;;;;;5032417;28;20182;-71
2023/07/04 09:20:15;;;;;;;5.22;1.60;;;14.00;99.90;;;;;;5033478;28;20182;-68
2023/07/04 09:22:41;;;;;;;3.97;1.60;;;13.90;99.90;;;;;;5033571;28;20220;-69
2023/07/04 09:25:07;;;;;;;4.50;2.10;;;13.90;99.90;;;;;;5033610;28;20196;-72
2023/07/04 09:27:33;;;;;;;6.32;1.67;;;13.70;99.90;;;;;;5033511;28;20217;-69
2023/07/04 09:30:00;;;;;;;6.25;1.80;;;13.80;99.90;;;;;;5033235;28;20166;-69
2023/07/04 09:32:26;;;;;;;4.32;1.70;;;13.70;99.90;;;;;;5033365;28;20189;-69
2023/07/04 09:35:01;;;;;;;3.60;1.40;;;13.70;99.90;;;;;;5033274;28;20657;-70
2023/07/04 09:37:26;;;;;;;5.30;1.92;;;13.70;99.90;;;;;;5032994;28;20181;-74
2023/07/04 09:39:58;;;;;;;6.03;1.60;;;13.80;99.90;;;;;;5033159;28;20172;-68
2023/07/04 09:42:40;;;;;;;2.70;1.48;;;13.90;99.90;;;;;;5033001;28;20177;-75
2023/07/04 09:45:08;;;;;;;4.30;1.70;;;13.80;99.90;;;;;;5033107;28;20220;-77
2023/07/04 09:47:36;;;;;;;3.47;1.80;;;13.90;99.90;;;;;;5032417;28;20300;-71
2023/07/04 09:50:08;;;;;;;2.67;1.63;;;13.90;99.90;;;;;;5032974;28;20652;-69
2023/07/04 09:52:34;;;;;;;5.15;1.88;;;14.20;99.90;;;;;;5032495;28;20224;-71
2023/07/04 09:55:24;;;;;;;5.38;1.73;;;14.30;99.90;;;;;;5025247;28;20170;-72
2023/07/04 09:57:50;;;;;;;5.93;1.40;;;14.20;99.90;;;;;;5032242;28;20178;-72
2023/07/04 10:00:24;;;;;;;3.25;1.50;;;14.20;99.90;;;;;;5031800;28;20185;-74
2023/07/04 10:03:04;;;;;;;6.80;2.13;;;14.20;99.90;;;;;;5032427;28;20316;-71
2023/07/04 10:05:33;;;;;;;7.00;1.90;;;14.10;99.90;;;;;;5032657;28;20245;-71
2023/07/04 10:08:01;;;;;;;4.20;1.75;;;14.20;99.90;;;;;;5032632;28;20209;-71
2023/07/04 10:10:27;;;;;;;6.15;1.90;;;14.20;99.90;;;;;;5032244;28;20213;-76
2023/07/04 10:12:52;;;;;;;5.32;1.80;;;14.20;99.90;;;;;;5031581;28;20182;-70
2023/07/04 10:15:26;;;;;;;7.65;2.22;;;14.30;99.90;;;;;;5031944;28;20182;-71
2023/07/04 10:17:52;;;;;;;5.75;1.90;;;14.30;99.90;;;;;;5031356;28;20629;-73
2023/07/04 10:20:18;;;;;;;10.93;2.40;;;14.40;99.90;;;;;;5032141;28;20192;-71
2023/07/04 10:22:52;;;;;;;4.95;1.90;;;15.30;99.90;;;;;;5032279;28;20645;-69
2023/07/04 10:25:23;;;;;;;5.50;1.70;;;14.40;99.90;;;;;;5035164;28;20190;-77
2023/07/04 10:27:53;;;;;;;4.68;1.80;;;14.30;99.90;;;;;;5050918;28;20209;-76
2023/07/04 10:30:25;;;;;;;5.78;1.70;;;14.30;99.90;;;;;;5041658;28;20209;-81
2023/07/04 10:33:03;;;;;;;6.90;1.80;;;14.30;99.90;;;;;;5032099;28;20264;-75
2023/07/04 10:35:32;;;;;;;3.45;1.70;;;14.30;99.90;;;;;;5030547;28;20193;-78
2023/07/04 10:38:04;;;;;;;3.30;1.48;;;14.30;99.90;;;;;;5032068;28;20294;-78
2023/07/04 10:40:35;;;;;;;3.35;1.90;;;14.40;99.90;;;;;;5032072;28;20174;-78
2023/07/04 10:43:08;;;;;;;4.45;1.55;;;14.60;99.90;;;;;;5032025;28;20162;-81
2023/07/04 10:45:35;;;;;;;3.28;1.88;;;14.80;99.90;;;;;;5032103;28;20193;-79
2023/07/04 10:48:09;;;;;;;6.75;2.53;;;15.00;99.90;;;;;;5031628;28;20804;-80
2023/07/04 10:50:45;;;;;;;12.80;2.17;;;15.10;99.90;;;;;;5031845;28;20165;-78
2023/07/04 10:53:12;;;;;;;4.03;1.92;;;15.10;99.90;;;;;;5031570;28;20220;-79
2023/07/04 10:55:55;;;;;;;4.43;1.85;;;15.00;99.90;;;;;;5031376;28;20171;-79
2023/07/04 10:58:24;;;;;;;4.00;1.88;;;15.00;99.90;;;;;;5030426;28;20181;-79
2023/07/04 11:01:04;;;;;;;7.22;2.10;;;15.00;99.90;;;;;;5031700;28;20170;-79
2023/07/04 11:03:39;;;;;;;5.35;2.33;;;15.00;99.90;;;;;;5031411;28;20368;-76
2023/07/04 11:06:11;;;;;;;4.43;2.13;;;15.10;99.90;;;;;;5030280;28;20231;-79
2023/07/04 11:08:39;;;;;;;5.78;1.85;;;15.20;99.90;;;;;;5031681;28;20688;-80
2023/07/04 11:11:15;;;;;;;6.20;1.80;;;15.30;99.90;;;;;;5032241;28;20220;-79
2023/07/04 11:13:48;;;;;;;9.40;2.45;;;15.30;99.90;;;;;;5031663;28;20189;-79
2023/07/04 11:16:16;;;;;;;4.28;2.00;;;15.40;99.90;;;;;;5033539;28;20205;-79
2023/07/04 11:18:44;;;;;;;9.43;2.33;;;15.40;99.90;;;;;;5036975;28;20173;-80
2023/07/04 11:21:14;;;;;;;8.55;2.30;;;15.30;99.90;;;;;;5034218;28;20177;-80
2023/07/04 11:23:53;;;;;;;6.85;2.40;;;15.40;99.90;;;;;;5032705;28;20641;-81
2023/07/04 11:26:40;;;;;;;6.82;2.40;;;15.40;99.90;;;;;;5031036;28;20164;-80
2023/07/04 11:29:08;;;;;;;8.68;2.55;;;15.40;99.90;;;;;;5030836;28;20186;-79
2023/07/04 11:32:03;;;;;;;8.05;2.55;;;15.30;99.90;;;;;;5031503;28;20637;-79
2023/07/04 11:34:42;;;;;;;8.25;2.55;;;15.40;99.90;;;;;;5030769;28;20243;-79
2023/07/04 11:37:09;;;;;;;7.45;2.35;;;15.40;99.90;;;;;;5030985;28;20243;-79
2023/07/04 11:39:38;;;;;;;7.13;2.40;;;15.40;99.90;;;;;;5030957;28;20194;-78
2023/07/04 11:42:36;;;;;;;8.05;2.90;;;15.40;99.90;;;;;;5029822;28;20641;-79
2023/07/04 11:45:11;;;;;;;9.65;2.53;;;15.40;99.90;;;;;;5030134;28;20232;-79
2023/07/04 11:47:43;;;;;;;7.00;2.25;;;15.40;99.90;;;;;;5030808;28;20309;-79
2023/07/04 11:50:37;;;;;;;9.75;2.70;;;15.30;99.90;;;;;;5030310;28;20340;-79
2023/07/04 11:53:13;;;;;;;10.10;3.13;;;15.70;99.90;;;;;;5023144;28;20193;-78
2023/07/04 11:55:39;;;;;;;9.70;2.53;;;15.50;99.90;;;;;;5030296;28;20177;-78
2023/07/04 11:58:07;;;;;;;6.97;2.55;;;15.60;99.90;;;;;;5029604;28;20182;-78
2023/07/04 12:00:37;;;;;;;14.40;2.60;;;15.70;99.90;;;;;;5030487;28;20656;-76
2023/07/04 12:03:17;;;;;;;9.45;2.85;;;15.60;99.90;;;;;;5031024;28;20174;-81
2023/07/04 12:05:57;;;;;;;8.95;2.88;;;15.70;99.90;;;;;;5031020;28;20652;-70
2023/07/04 12:08:45;;;;;;;6.10;2.60;;;15.90;99.90;;;;;;5030508;28;20212;-77
2023/07/04 12:11:46;;;;;;;8.60;2.80;;;16.10;99.90;;;;;;5014191;28;20226;-77
2023/07/04 12:14:14;;;;;;;9.35;2.53;;;16.50;99.90;;;;;;4989325;28;20216;-79
2023/07/04 12:16:41;;;;;;;7.35;2.42;;;16.70;99.90;;;;;;5022681;28;20185;-76
2023/07/04 12:19:13;;;;;;;9.50;2.72;;;16.80;99.90;;;;;;5030570;28;20268;-76
2023/07/04 12:21:42;;;;;;;4.93;2.65;;;16.80;99.90;;;;;;5031994;28;20177;-76
2023/07/04 12:24:07;;;;;;;7.57;2.55;;;16.90;99.90;;;;;;5033028;28;20174;-76
2023/07/04 12:26:33;;;;;;;6.03;2.40;;;17.00;99.90;;;;;;5032511;28;20691;-77
2023/07/04 12:29:04;;;;;;;8.25;2.63;;;16.90;99.90;;;;;;5033644;28;20227;-78
2023/07/04 12:31:30;;;;;;;11.93;2.75;;;16.40;99.90;;;;;;5032973;28;20178;-76
2023/07/04 12:33:56;;;;;;;9.95;3.00;;;16.40;99.90;;;;;;5034220;28;20384;-78
2023/07/04 12:36:30;;;;;;;12.00;2.78;;;16.60;99.90;;;;;;5033723;28;20173;-76
2023/07/04 12:38:56;;;;;;;7.70;2.80;;;16.80;99.90;;;;;;5032492;28;20181;-75
2023/07/04 12:41:25;;;;;;;9.52;3.08;;;17.00;99.90;;;;;;5034944;28;20174;-75
2023/07/04 12:44:13;;;;;;;9.70;2.80;;;16.90;99.90;;;;;;5033344;28;20602;-75
2023/07/04 12:46:42;;;;;;;9.48;3.05;;;16.80;99.90;;;;;;5034469;28;20166;-76
2023/07/04 12:49:10;;;;;;;6.68;2.67;;;16.40;99.90;;;;;;5034140;28;20182;-77
2023/07/04 12:51:38;;;;;;;13.48;3.28;;;16.70;99.90;;;;;;5035258;28;20193;-78
2023/07/04 12:54:05;;;;;;;9.70;3.20;;;16.40;99.90;;;;;;5034608;28;20540;-77
2023/07/04 12:56:32;;;;;;;8.98;2.83;;;16.70;99.90;;;;;;5034887;28;20178;-76
2023/07/04 12:58:58;;;;;;;11.90;3.28;;;16.60;99.90;;;;;;5034500;28;20169;-78
2023/07/04 13:01:29;;;;;;;7.95;2.97;;;16.50;99.90;;;;;;5033634;28;20174;-76